Station History

Weather Underground - logo

Station Historical Data
Daily Summary for January 26, 2018 Units:  Both    English   Metric
« Previous Day
Next Day »
Daily Weekly Monthly Yearly Custom
  High: Low: Average:
Temperature: 58.0 °F /  14.4 °C 33.7 °F /  0.9 °C 44.2 °F /  6.8 °C
Dew Point: 44.7 °F /  7.1 °C 31.5 °F /  -0.3 °C 37.9 °F /  3.3 °C
Humidity: 94 % 50 % 80 %
Wind Speed: 6.9 mph /  11.1 km/h - 0.7 mph /  1.1 km/h
Wind Gust: 6.9 mph /  11.1 km/h - -
Wind:- - South
Pressure: 30.41 in /  1029.7 hPa 30.25 in /  1024.3 hPa -
Precipitation: 0.00 in /  0 mm    
Historical Graphs
 
 
Tabular Data for January 26, 2018
Time Temperature Dew Point Pressure Wind Wind Speed Wind Gust Humidity Rainfall Rate (Hourly)
00:00 37.4 °F /  3 °C 34.7 °F /  1.5 °C 30.25 in /  1024.3 hPa Calm     90 % 0.00 in /  0 mm
00:05 37.2 °F /  2.9 °C 34.8 °F /  1.6 °C 30.25 in /  1024.3 hPa Calm     91 % 0.00 in /  0 mm
00:10 37.1 °F /  2.8 °C 34.7 °F /  1.5 °C 30.25 in /  1024.3 hPa Calm     91 % 0.00 in /  0 mm
00:15 37.0 °F /  2.8 °C 34.6 °F /  1.4 °C 30.25 in /  1024.3 hPa Calm     91 % 0.00 in /  0 mm
00:20 36.8 °F /  2.7 °C 34.4 °F /  1.3 °C 30.25 in /  1024.3 hPa Calm     91 % 0.00 in /  0 mm
00:25 36.5 °F /  2.5 °C 34.1 °F /  1.2 °C 30.25 in /  1024.3 hPa Calm     91 % 0.00 in /  0 mm
00:30 36.1 °F /  2.3 °C 33.7 °F /  0.9 °C 30.25 in /  1024.3 hPa Calm     91 % 0.00 in /  0 mm
00:35 36.1 °F /  2.3 °C 34.0 °F /  1.1 °C 30.25 in /  1024.3 hPa Calm     92 % 0.00 in /  0 mm
00:40 36.0 °F /  2.2 °C 33.9 °F /  1.1 °C 30.25 in /  1024.3 hPa Calm     92 % 0.00 in /  0 mm
00:45 36.0 °F /  2.2 °C 33.9 °F /  1.1 °C 30.25 in /  1024.3 hPa Calm     92 % 0.00 in /  0 mm
00:51 36.1 °F /  2.3 °C 34.3 °F /  1.3 °C 30.26 in /  1024.6 hPa Calm     93 % 0.00 in /  0 mm
00:56 36.2 °F /  2.3 °C 34.4 °F /  1.3 °C 30.26 in /  1024.6 hPa Calm     93 % 0.00 in /  0 mm
01:01 36.4 °F /  2.4 °C 34.6 °F /  1.4 °C 30.26 in /  1024.6 hPa Calm     93 % 0.00 in /  0 mm
01:06 36.3 °F /  2.4 °C 34.5 °F /  1.4 °C 30.26 in /  1024.6 hPa Calm     93 % 0.00 in /  0 mm
01:11 36.5 °F /  2.5 °C 34.7 °F /  1.5 °C 30.26 in /  1024.6 hPa East 1.2 mph /  1.9 km/h   93 % 0.00 in /  0 mm
01:16 36.6 °F /  2.6 °C 34.8 °F /  1.6 °C 30.26 in /  1024.6 hPa Calm     93 % 0.00 in /  0 mm
01:21 36.7 °F /  2.6 °C 34.9 °F /  1.6 °C 30.26 in /  1024.6 hPa Calm     93 % 0.00 in /  0 mm
01:26 36.7 °F /  2.6 °C 34.9 °F /  1.6 °C 30.26 in /  1024.6 hPa Calm     93 % 0.00 in /  0 mm
01:31 36.5 °F /  2.5 °C 34.4 °F /  1.3 °C 30.26 in /  1024.6 hPa Calm     92 % 0.00 in /  0 mm
01:36 36.5 °F /  2.5 °C 34.4 °F /  1.3 °C 30.26 in /  1024.6 hPa Calm     92 % 0.00 in /  0 mm
01:41 36.5 °F /  2.5 °C 34.4 °F /  1.3 °C 30.27 in /  1024.9 hPa Calm     92 % 0.00 in /  0 mm
01:46 36.6 °F /  2.6 °C 34.5 °F /  1.4 °C 30.27 in /  1024.9 hPa Calm     92 % 0.00 in /  0 mm
01:51 36.4 °F /  2.4 °C 34.3 °F /  1.3 °C 30.27 in /  1024.9 hPa Calm     92 % 0.00 in /  0 mm
01:56 36.1 °F /  2.3 °C 33.7 °F /  0.9 °C 30.27 in /  1024.9 hPa Calm     91 % 0.00 in /  0 mm
02:01 36.1 °F /  2.3 °C 34.0 °F /  1.1 °C 30.27 in /  1024.9 hPa Calm     92 % 0.00 in /  0 mm
02:06 36.0 °F /  2.2 °C 33.9 °F /  1.1 °C 30.27 in /  1024.9 hPa East 6.9 mph /  11.1 km/h 6.9 mph /  11.1 km/h 92 % 0.00 in /  0 mm
02:11 36.1 °F /  2.3 °C 34.3 °F /  1.3 °C 30.27 in /  1024.9 hPa Calm     93 % 0.00 in /  0 mm
02:16 36.0 °F /  2.2 °C 33.9 °F /  1.1 °C 30.27 in /  1024.9 hPa Calm     92 % 0.00 in /  0 mm
02:21 35.9 °F /  2.2 °C 33.8 °F /  1 °C 30.27 in /  1024.9 hPa Calm     92 % 0.00 in /  0 mm
02:26 35.7 °F /  2.1 °C 33.6 °F /  0.9 °C 30.27 in /  1024.9 hPa Calm     92 % 0.00 in /  0 mm
02:31 35.6 °F /  2 °C 33.5 °F /  0.8 °C 30.27 in /  1024.9 hPa Calm     92 % 0.00 in /  0 mm
02:36 35.3 °F /  1.8 °C 33.2 °F /  0.7 °C 30.27 in /  1024.9 hPa Calm     92 % 0.00 in /  0 mm
02:41 35.1 °F /  1.7 °C 33.0 °F /  0.6 °C 30.27 in /  1024.9 hPa Calm     92 % 0.00 in /  0 mm
02:46 35.2 °F /  1.8 °C 33.4 °F /  0.8 °C 30.27 in /  1024.9 hPa Calm     93 % 0.00 in /  0 mm
02:51 35.6 °F /  2 °C 33.8 °F /  1 °C 30.27 in /  1024.9 hPa Calm     93 % 0.00 in /  0 mm
02:56 36.0 °F /  2.2 °C 34.2 °F /  1.2 °C 30.27 in /  1024.9 hPa Calm     93 % 0.00 in /  0 mm
03:01 36.1 °F /  2.3 °C 34.3 °F /  1.3 °C 30.27 in /  1024.9 hPa Calm     93 % 0.00 in /  0 mm
03:06 36.0 °F /  2.2 °C 33.9 °F /  1.1 °C 30.27 in /  1024.9 hPa Calm     92 % 0.00 in /  0 mm
03:11 35.9 °F /  2.2 °C 33.8 °F /  1 °C 30.27 in /  1024.9 hPa Calm     92 % 0.00 in /  0 mm
03:16 35.7 °F /  2.1 °C 33.3 °F /  0.7 °C 30.27 in /  1024.9 hPa Calm     91 % 0.00 in /  0 mm
03:21 35.6 °F /  2 °C 33.2 °F /  0.7 °C 30.27 in /  1024.9 hPa Calm     91 % 0.00 in /  0 mm
03:26 35.4 °F /  1.9 °C 33.0 °F /  0.6 °C 30.27 in /  1024.9 hPa Calm     91 % 0.00 in /  0 mm
03:31 35.1 °F /  1.7 °C 32.7 °F /  0.4 °C 30.27 in /  1024.9 hPa Calm     91 % 0.00 in /  0 mm
03:36 34.9 °F /  1.6 °C 32.5 °F /  0.3 °C 30.27 in /  1024.9 hPa Calm     91 % 0.00 in /  0 mm
03:41 34.8 °F /  1.6 °C 32.4 °F /  0.2 °C 30.28 in /  1025.3 hPa Calm     91 % 0.00 in /  0 mm
03:46 34.7 °F /  1.5 °C 32.6 °F /  0.3 °C 30.28 in /  1025.3 hPa Calm     92 % 0.00 in /  0 mm
03:51 34.7 °F /  1.5 °C 32.6 °F /  0.3 °C 30.28 in /  1025.3 hPa Calm     92 % 0.00 in /  0 mm
03:56 34.7 °F /  1.5 °C 32.6 °F /  0.3 °C 30.28 in /  1025.3 hPa Calm     92 % 0.00 in /  0 mm
04:01 34.9 °F /  1.6 °C 32.8 °F /  0.4 °C 30.28 in /  1025.3 hPa Calm     92 % 0.00 in /  0 mm
04:06 35.0 °F /  1.7 °C 32.9 °F /  0.5 °C 30.28 in /  1025.3 hPa Calm     92 % 0.00 in /  0 mm
04:11 34.9 °F /  1.6 °C 32.8 °F /  0.4 °C 30.28 in /  1025.3 hPa Calm     92 % 0.00 in /  0 mm
04:16 34.9 °F /  1.6 °C 32.8 °F /  0.4 °C 30.28 in /  1025.3 hPa Calm     92 % 0.00 in /  0 mm
04:21 34.8 °F /  1.6 °C 32.7 °F /  0.4 °C 30.28 in /  1025.3 hPa Calm     92 % 0.00 in /  0 mm
04:26 35.0 °F /  1.7 °C 32.9 °F /  0.5 °C 30.28 in /  1025.3 hPa Calm     92 % 0.00 in /  0 mm
04:31 35.3 °F /  1.8 °C 33.2 °F /  0.7 °C 30.29 in /  1025.6 hPa Calm     92 % 0.00 in /  0 mm
04:36 35.4 °F /  1.9 °C 33.3 °F /  0.7 °C 30.28 in /  1025.3 hPa Calm     92 % 0.00 in /  0 mm
04:41 35.3 °F /  1.8 °C 33.2 °F /  0.7 °C 30.29 in /  1025.6 hPa East 1.0 mph /  1.6 km/h   92 % 0.00 in /  0 mm
04:46 35.4 °F /  1.9 °C 33.3 °F /  0.7 °C 30.29 in /  1025.6 hPa Calm     92 % 0.00 in /  0 mm
04:51 35.4 °F /  1.9 °C 33.3 °F /  0.7 °C 30.29 in /  1025.6 hPa Calm     92 % 0.00 in /  0 mm
04:56 35.4 °F /  1.9 °C 33.3 °F /  0.7 °C 30.29 in /  1025.6 hPa Calm     92 % 0.00 in /  0 mm
05:01 35.1 °F /  1.7 °C 32.7 °F /  0.4 °C 30.29 in /  1025.6 hPa Calm     91 % 0.00 in /  0 mm
05:06 34.9 °F /  1.6 °C 32.8 °F /  0.4 °C 30.29 in /  1025.6 hPa Calm     92 % 0.00 in /  0 mm
05:11 34.8 °F /  1.6 °C 32.7 °F /  0.4 °C 30.30 in /  1026 hPa Calm     92 % 0.00 in /  0 mm
05:16 35.0 °F /  1.7 °C 32.9 °F /  0.5 °C 30.30 in /  1026 hPa Calm     92 % 0.00 in /  0 mm
05:21 34.8 °F /  1.6 °C 32.7 °F /  0.4 °C 30.30 in /  1026 hPa Calm     92 % 0.00 in /  0 mm
05:26 34.5 °F /  1.4 °C 32.4 °F /  0.2 °C 30.30 in /  1026 hPa Calm     92 % 0.00 in /  0 mm
05:31 34.4 °F /  1.3 °C 32.3 °F /  0.2 °C 30.30 in /  1026 hPa Calm     92 % 0.00 in /  0 mm
05:36 34.3 °F /  1.3 °C 32.2 °F /  0.1 °C 30.31 in /  1026.3 hPa Calm     92 % 0.00 in /  0 mm
05:41 34.1 °F /  1.2 °C 32.0 °F /  0 °C 30.31 in /  1026.3 hPa Calm     92 % 0.00 in /  0 mm
05:46 34.2 °F /  1.2 °C 32.4 °F /  0.2 °C 30.31 in /  1026.3 hPa Calm     93 % 0.00 in /  0 mm
05:51 34.0 °F /  1.1 °C 32.2 °F /  0.1 °C 30.31 in /  1026.3 hPa Calm     93 % 0.00 in /  0 mm
05:56 34.3 °F /  1.3 °C 32.5 °F /  0.3 °C 30.31 in /  1026.3 hPa Calm     93 % 0.00 in /  0 mm
06:01 34.8 °F /  1.6 °C 33.2 °F /  0.7 °C 30.31 in /  1026.3 hPa Calm     94 % 0.00 in /  0 mm
06:06 35.0 °F /  1.7 °C 33.2 °F /  0.7 °C 30.31 in /  1026.3 hPa Calm     93 % 0.00 in /  0 mm
06:11 35.1 °F /  1.7 °C 33.3 °F /  0.7 °C 30.32 in /  1026.6 hPa Calm     93 % 0.00 in /  0 mm
06:16 35.0 °F /  1.7 °C 32.9 °F /  0.5 °C 30.32 in /  1026.6 hPa Calm     92 % 0.00 in /  0 mm
06:21 34.6 °F /  1.4 °C 32.2 °F /  0.1 °C 30.32 in /  1026.6 hPa Calm   0.1 mph /  0.2 km/h 91 % 0.00 in /  0 mm
06:26 34.4 °F /  1.3 °C 32.3 °F /  0.2 °C 30.32 in /  1026.6 hPa Calm     92 % 0.00 in /  0 mm
06:32 34.3 °F /  1.3 °C 32.2 °F /  0.1 °C 30.32 in /  1026.6 hPa Calm     92 % 0.00 in /  0 mm
06:37 34.3 °F /  1.3 °C 32.2 °F /  0.1 °C 30.33 in /  1027 hPa East 1.0 mph /  1.6 km/h 1.0 mph /  1.6 km/h 92 % 0.00 in /  0 mm
06:42 34.3 °F /  1.3 °C 32.2 °F /  0.1 °C 30.33 in /  1027 hPa Calm     92 % 0.00 in /  0 mm
06:47 34.4 °F /  1.3 °C 32.3 °F /  0.2 °C 30.33 in /  1027 hPa Calm     92 % 0.00 in /  0 mm
06:52 34.3 °F /  1.3 °C 32.2 °F /  0.1 °C 30.33 in /  1027 hPa East 1.2 mph /  1.9 km/h 1.2 mph /  1.9 km/h 92 % 0.00 in /  0 mm
06:57 34.1 °F /  1.2 °C 32.0 °F /  0 °C 30.34 in /  1027.3 hPa Calm     92 % 0.00 in /  0 mm
07:02 34.0 °F /  1.1 °C 31.6 °F /  -0.2 °C 30.34 in /  1027.3 hPa Calm     91 % 0.00 in /  0 mm
07:07 33.8 °F /  1 °C 31.5 °F /  -0.3 °C 30.34 in /  1027.3 hPa Calm     91 % 0.00 in /  0 mm
07:12 33.7 °F /  0.9 °C 31.6 °F /  -0.2 °C 30.34 in /  1027.3 hPa Calm     92 % 0.00 in /  0 mm
07:17 34.0 °F /  1.1 °C 31.9 °F /  -0.1 °C 30.34 in /  1027.3 hPa Calm     92 % 0.00 in /  0 mm
07:22 34.3 °F /  1.3 °C 32.2 °F /  0.1 °C 30.34 in /  1027.3 hPa East 1.2 mph /  1.9 km/h   92 % 0.00 in /  0 mm
07:27 34.6 °F /  1.4 °C 32.5 °F /  0.3 °C 30.35 in /  1027.7 hPa Calm     92 % 0.00 in /  0 mm
07:32 35.0 °F /  1.7 °C 33.2 °F /  0.7 °C 30.35 in /  1027.7 hPa Calm     93 % 0.00 in /  0 mm
07:37 35.4 °F /  1.9 °C 33.6 °F /  0.9 °C 30.36 in /  1028 hPa East 1.2 mph /  1.9 km/h   93 % 0.00 in /  0 mm
07:42 35.7 °F /  2.1 °C 33.9 °F /  1.1 °C 30.36 in /  1028 hPa East 1.2 mph /  1.9 km/h   93 % 0.00 in /  0 mm
07:47 36.0 °F /  2.2 °C 33.9 °F /  1.1 °C 30.36 in /  1028 hPa Calm     92 % 0.00 in /  0 mm
07:52 36.3 °F /  2.4 °C 34.2 °F /  1.2 °C 30.36 in /  1028 hPa East 1.0 mph /  1.6 km/h   92 % 0.00 in /  0 mm
07:57 36.7 °F /  2.6 °C 34.9 °F /  1.6 °C 30.36 in /  1028 hPa East 1.2 mph /  1.9 km/h 1.2 mph /  1.9 km/h 93 % 0.00 in /  0 mm
08:02 37.3 °F /  2.9 °C 35.2 °F /  1.8 °C 30.36 in /  1028 hPa East 1.2 mph /  1.9 km/h   92 % 0.00 in /  0 mm
08:07 38.0 °F /  3.3 °C 35.9 °F /  2.2 °C 30.37 in /  1028.3 hPa East 1.2 mph /  1.9 km/h   92 % 0.00 in /  0 mm
08:12 38.7 °F /  3.7 °C 36.6 °F /  2.6 °C 30.37 in /  1028.3 hPa East 1.2 mph /  1.9 km/h 1.2 mph /  1.9 km/h 92 % 0.00 in /  0 mm
08:17 39.3 °F /  4.1 °C 36.9 °F /  2.7 °C 30.37 in /  1028.3 hPa SE 1.2 mph /  1.9 km/h 1.2 mph /  1.9 km/h 91 % 0.00 in /  0 mm
08:22 39.8 °F /  4.3 °C 37.4 °F /  3 °C 30.37 in /  1028.3 hPa Calm     91 % 0.00 in /  0 mm
08:27 40.6 °F /  4.8 °C 38.2 °F /  3.4 °C 30.38 in /  1028.7 hPa SE 1.2 mph /  1.9 km/h   91 % 0.00 in /  0 mm
08:32 41.2 °F /  5.1 °C 38.5 °F /  3.6 °C 30.38 in /  1028.7 hPa SE 1.2 mph /  1.9 km/h   90 % 0.00 in /  0 mm
08:37 41.7 °F /  5.4 °C 39.0 °F /  3.9 °C 30.38 in /  1028.7 hPa SE 1.2 mph /  1.9 km/h 1.2 mph /  1.9 km/h 90 % 0.00 in /  0 mm
08:42 42.1 °F /  5.6 °C 39.1 °F /  3.9 °C 30.38 in /  1028.7 hPa ESE 2.3 mph /  3.7 km/h 2.3 mph /  3.7 km/h 89 % 0.00 in /  0 mm
08:47 42.6 °F /  5.9 °C 39.6 °F /  4.2 °C 30.38 in /  1028.7 hPa ESE 3.5 mph /  5.6 km/h 3.5 mph /  5.6 km/h 89 % 0.00 in /  0 mm
08:52 42.9 °F /  6.1 °C 39.9 °F /  4.4 °C 30.39 in /  1029 hPa SE 2.3 mph /  3.7 km/h 2.3 mph /  3.7 km/h 89 % 0.00 in /  0 mm
08:57 43.4 °F /  6.3 °C 40.1 °F /  4.5 °C 30.39 in /  1029 hPa East 2.3 mph /  3.7 km/h 2.3 mph /  3.7 km/h 88 % 0.00 in /  0 mm
09:02 43.8 °F /  6.6 °C 40.2 °F /  4.6 °C 30.39 in /  1029 hPa ESE 3.5 mph /  5.6 km/h 3.5 mph /  5.6 km/h 87 % 0.00 in /  0 mm
09:07 43.9 °F /  6.6 °C 40.3 °F /  4.6 °C 30.39 in /  1029 hPa SSE 2.3 mph /  3.7 km/h 2.3 mph /  3.7 km/h 87 % 0.00 in /  0 mm
09:12 44.1 °F /  6.7 °C 40.5 °F /  4.7 °C 30.39 in /  1029 hPa ENE 1.2 mph /  1.9 km/h 1.2 mph /  1.9 km/h 87 % 0.00 in /  0 mm
09:17 44.4 °F /  6.9 °C 40.8 °F /  4.9 °C 30.39 in /  1029 hPa South 2.3 mph /  3.7 km/h 2.3 mph /  3.7 km/h 87 % 0.00 in /  0 mm
09:22 44.7 °F /  7.1 °C 40.8 °F /  4.9 °C 30.39 in /  1029 hPa SE 2.3 mph /  3.7 km/h 2.3 mph /  3.7 km/h 86 % 0.00 in /  0 mm
09:27 44.8 °F /  7.1 °C 40.9 °F /  4.9 °C 30.40 in /  1029.3 hPa SSE 1.2 mph /  1.9 km/h 1.2 mph /  1.9 km/h 86 % 0.00 in /  0 mm
09:32 45.4 °F /  7.4 °C 41.5 °F /  5.3 °C 30.39 in /  1029 hPa SE 2.3 mph /  3.7 km/h 2.3 mph /  3.7 km/h 86 % 0.00 in /  0 mm
09:37 45.6 °F /  7.6 °C 41.4 °F /  5.2 °C 30.40 in /  1029.3 hPa ENE 4.6 mph /  7.4 km/h 4.6 mph /  7.4 km/h 85 % 0.00 in /  0 mm
09:42 46.1 °F /  7.8 °C 42.1 °F /  5.6 °C 30.40 in /  1029.3 hPa ESE 2.3 mph /  3.7 km/h 2.3 mph /  3.7 km/h 86 % 0.00 in /  0 mm
09:47 46.8 °F /  8.2 °C 42.5 °F /  5.8 °C 30.40 in /  1029.3 hPa SSE 4.0 mph /  6.4 km/h 4.0 mph /  6.4 km/h 85 % 0.00 in /  0 mm
09:52 47.2 °F /  8.4 °C 42.6 °F /  5.9 °C 30.41 in /  1029.7 hPa NE 4.6 mph /  7.4 km/h 4.6 mph /  7.4 km/h 84 % 0.00 in /  0 mm
09:57 47.5 °F /  8.6 °C 42.6 °F /  5.9 °C 30.41 in /  1029.7 hPa SSE 3.5 mph /  5.6 km/h 3.5 mph /  5.6 km/h 83 % 0.00 in /  0 mm
10:02 47.9 °F /  8.8 °C 43.0 °F /  6.1 °C 30.41 in /  1029.7 hPa SE 2.3 mph /  3.7 km/h 2.3 mph /  3.7 km/h 83 % 0.00 in /  0 mm
10:07 48.2 °F /  9 °C 42.6 °F /  5.9 °C 30.41 in /  1029.7 hPa South 3.5 mph /  5.6 km/h 3.5 mph /  5.6 km/h 81 % 0.00 in /  0 mm
10:12 48.8 °F /  9.3 °C 43.2 °F /  6.2 °C 30.41 in /  1029.7 hPa ENE 3.5 mph /  5.6 km/h 3.5 mph /  5.6 km/h 81 % 0.00 in /  0 mm
10:17 49.1 °F /  9.5 °C 43.2 °F /  6.2 °C 30.41 in /  1029.7 hPa SE 2.3 mph /  3.7 km/h 2.3 mph /  3.7 km/h 80 % 0.00 in /  0 mm
10:22 49.7 °F /  9.8 °C 43.8 °F /  6.6 °C 30.41 in /  1029.7 hPa ENE 1.2 mph /  1.9 km/h 1.2 mph /  1.9 km/h 80 % 0.00 in /  0 mm
10:27 50.3 °F /  10.2 °C 44.0 °F /  6.7 °C 30.41 in /  1029.7 hPa SE 1.2 mph /  1.9 km/h   79 % 0.00 in /  0 mm
10:32 50.8 °F /  10.4 °C 43.8 °F /  6.6 °C 30.41 in /  1029.7 hPa Calm     77 % 0.00 in /  0 mm
10:37 51.1 °F /  10.6 °C 43.8 °F /  6.6 °C 30.41 in /  1029.7 hPa SSE 3.5 mph /  5.6 km/h 3.5 mph /  5.6 km/h 76 % 0.00 in /  0 mm
10:42 51.4 °F /  10.8 °C 44.1 °F /  6.7 °C 30.41 in /  1029.7 hPa SE 2.3 mph /  3.7 km/h 2.3 mph /  3.7 km/h 76 % 0.00 in /  0 mm
10:47 51.4 °F /  10.8 °C 43.7 °F /  6.5 °C 30.41 in /  1029.7 hPa SSW 3.5 mph /  5.6 km/h 3.5 mph /  5.6 km/h 75 % 0.00 in /  0 mm
10:52 51.9 °F /  11.1 °C 43.9 °F /  6.6 °C 30.41 in /  1029.7 hPa SSE 2.3 mph /  3.7 km/h 2.3 mph /  3.7 km/h 74 % 0.00 in /  0 mm
10:57 52.0 °F /  11.1 °C 44.3 °F /  6.8 °C 30.41 in /  1029.7 hPa South 1.2 mph /  1.9 km/h 1.2 mph /  1.9 km/h 75 % 0.00 in /  0 mm
11:02 52.2 °F /  11.2 °C 43.8 °F /  6.6 °C 30.41 in /  1029.7 hPa SSE 3.5 mph /  5.6 km/h 3.5 mph /  5.6 km/h 73 % 0.00 in /  0 mm
11:07 52.2 °F /  11.2 °C 44.2 °F /  6.8 °C 30.41 in /  1029.7 hPa NE 2.3 mph /  3.7 km/h   74 % 0.00 in /  0 mm
11:12 52.5 °F /  11.4 °C 44.1 °F /  6.7 °C 30.41 in /  1029.7 hPa ESE 3.5 mph /  5.6 km/h   73 % 0.00 in /  0 mm
11:17 52.8 °F /  11.6 °C 44.4 °F /  6.9 °C 30.41 in /  1029.7 hPa SSE 2.3 mph /  3.7 km/h   73 % 0.00 in /  0 mm
11:22 53.2 °F /  11.8 °C 44.0 °F /  6.7 °C 30.41 in /  1029.7 hPa Calm     71 % 0.00 in /  0 mm
11:27 53.3 °F /  11.8 °C 43.8 °F /  6.6 °C 30.40 in /  1029.3 hPa SE 2.3 mph /  3.7 km/h 2.3 mph /  3.7 km/h 70 % 0.00 in /  0 mm
11:32 53.4 °F /  11.9 °C 44.2 °F /  6.8 °C 30.40 in /  1029.3 hPa SE 1.2 mph /  1.9 km/h   71 % 0.00 in /  0 mm
11:37 53.8 °F /  12.1 °C 44.2 °F /  6.8 °C 30.40 in /  1029.3 hPa SE 3.5 mph /  5.6 km/h 3.5 mph /  5.6 km/h 70 % 0.00 in /  0 mm
11:42 53.7 °F /  12.1 °C 43.4 °F /  6.3 °C 30.39 in /  1029 hPa NW 1.2 mph /  1.9 km/h 1.2 mph /  1.9 km/h 68 % 0.00 in /  0 mm
11:47 53.5 °F /  11.9 °C 44.0 °F /  6.7 °C 30.39 in /  1029 hPa NNW 1.2 mph /  1.9 km/h 1.2 mph /  1.9 km/h 70 % 0.00 in /  0 mm
11:52 53.9 °F /  12.2 °C 44.3 °F /  6.8 °C 30.39 in /  1029 hPa ENE 3.5 mph /  5.6 km/h 3.5 mph /  5.6 km/h 70 % 0.00 in /  0 mm
11:58 54.0 °F /  12.2 °C 43.3 °F /  6.3 °C 30.39 in /  1029 hPa NNW 2.3 mph /  3.7 km/h 2.3 mph /  3.7 km/h 67 % 0.00 in /  0 mm
12:02 54.0 °F /  12.2 °C 44.1 °F /  6.7 °C 30.38 in /  1028.7 hPa SE 3.5 mph /  5.6 km/h 3.5 mph /  5.6 km/h 69 % 0.00 in /  0 mm
12:07 54.2 °F /  12.3 °C 43.9 °F /  6.6 °C 30.38 in /  1028.7 hPa NNW 2.3 mph /  3.7 km/h 2.3 mph /  3.7 km/h 68 % 0.00 in /  0 mm
12:12 53.9 °F /  12.2 °C 42.8 °F /  6 °C 30.37 in /  1028.3 hPa NNW 2.3 mph /  3.7 km/h 2.3 mph /  3.7 km/h 66 % 0.00 in /  0 mm
12:17 54.0 °F /  12.2 °C 43.3 °F /  6.3 °C 30.37 in /  1028.3 hPa ENE 3.5 mph /  5.6 km/h 3.5 mph /  5.6 km/h 67 % 0.00 in /  0 mm
12:23 54.5 °F /  12.5 °C 43.4 °F /  6.3 °C 30.37 in /  1028.3 hPa Calm     66 % 0.00 in /  0 mm
12:28 54.8 °F /  12.7 °C 43.7 °F /  6.5 °C 30.37 in /  1028.3 hPa NW 1.2 mph /  1.9 km/h 1.2 mph /  1.9 km/h 66 % 0.00 in /  0 mm
12:33 54.8 °F /  12.7 °C 44.0 °F /  6.7 °C 30.36 in /  1028 hPa Calm     67 % 0.00 in /  0 mm
12:38 54.9 °F /  12.7 °C 43.4 °F /  6.3 °C 30.36 in /  1028 hPa WNW 1.2 mph /  1.9 km/h 1.2 mph /  1.9 km/h 65 % 0.00 in /  0 mm
12:43 55.1 °F /  12.8 °C 43.5 °F /  6.4 °C 30.36 in /  1028 hPa West 2.3 mph /  3.7 km/h 2.3 mph /  3.7 km/h 65 % 0.00 in /  0 mm
12:48 54.9 °F /  12.7 °C 43.7 °F /  6.5 °C 30.36 in /  1028 hPa West 2.3 mph /  3.7 km/h 2.3 mph /  3.7 km/h 66 % 0.00 in /  0 mm
12:53 55.1 °F /  12.8 °C 43.9 °F /  6.6 °C 30.36 in /  1028 hPa SSE 2.3 mph /  3.7 km/h 2.3 mph /  3.7 km/h 66 % 0.00 in /  0 mm
12:58 55.7 °F /  13.2 °C 43.7 °F /  6.5 °C 30.35 in /  1027.7 hPa ESE 1.0 mph /  1.6 km/h 1.0 mph /  1.6 km/h 64 % 0.00 in /  0 mm
13:03 55.9 °F /  13.3 °C 43.5 °F /  6.4 °C 30.35 in /  1027.7 hPa WNW 2.3 mph /  3.7 km/h 2.3 mph /  3.7 km/h 63 % 0.00 in /  0 mm
13:08 55.8 °F /  13.2 °C 43.4 °F /  6.3 °C 30.35 in /  1027.7 hPa WSW 2.3 mph /  3.7 km/h 2.3 mph /  3.7 km/h 63 % 0.00 in /  0 mm
13:13 55.8 °F /  13.2 °C 43.8 °F /  6.6 °C 30.34 in /  1027.3 hPa WNW 1.0 mph /  1.6 km/h 1.0 mph /  1.6 km/h 64 % 0.00 in /  0 mm
13:18 55.9 °F /  13.3 °C 43.1 °F /  6.2 °C 30.34 in /  1027.3 hPa West 1.2 mph /  1.9 km/h 1.2 mph /  1.9 km/h 62 % 0.00 in /  0 mm
13:23 56.7 °F /  13.7 °C 44.7 °F /  7.1 °C 30.34 in /  1027.3 hPa Calm     64 % 0.00 in /  0 mm
13:28 57.4 °F /  14.1 °C 44.1 °F /  6.7 °C 30.34 in /  1027.3 hPa East 2.3 mph /  3.7 km/h 2.3 mph /  3.7 km/h 61 % 0.00 in /  0 mm
13:33 57.8 °F /  14.3 °C 43.1 °F /  6.2 °C 30.34 in /  1027.3 hPa West 2.3 mph /  3.7 km/h 2.3 mph /  3.7 km/h 58 % 0.00 in /  0 mm
13:38 57.4 °F /  14.1 °C 42.3 °F /  5.7 °C 30.34 in /  1027.3 hPa Calm     57 % 0.00 in /  0 mm
13:43 57.6 °F /  14.2 °C 42.9 °F /  6.1 °C 30.33 in /  1027 hPa Calm     58 % 0.00 in /  0 mm
13:48 57.3 °F /  14.1 °C 42.6 °F /  5.9 °C 30.34 in /  1027.3 hPa NW 2.3 mph /  3.7 km/h 2.3 mph /  3.7 km/h 58 % 0.00 in /  0 mm
13:53 57.3 °F /  14.1 °C 42.2 °F /  5.7 °C 30.33 in /  1027 hPa WSW 1.2 mph /  1.9 km/h   57 % 0.00 in /  0 mm
13:58 57.5 °F /  14.2 °C 42.4 °F /  5.8 °C 30.33 in /  1027 hPa ESE 3.5 mph /  5.6 km/h 3.5 mph /  5.6 km/h 57 % 0.00 in /  0 mm
14:03 58.0 °F /  14.4 °C 41.9 °F /  5.5 °C 30.33 in /  1027 hPa Calm   0.1 mph /  0.2 km/h 55 % 0.00 in /  0 mm
14:08 57.8 °F /  14.3 °C 41.7 °F /  5.4 °C 30.33 in /  1027 hPa East 1.2 mph /  1.9 km/h 1.2 mph /  1.9 km/h 55 % 0.00 in /  0 mm
14:13 57.6 °F /  14.2 °C 41.1 °F /  5.1 °C 30.33 in /  1027 hPa NW 2.3 mph /  3.7 km/h 2.3 mph /  3.7 km/h 54 % 0.00 in /  0 mm
14:18 57.1 °F /  13.9 °C 41.1 °F /  5.1 °C 30.33 in /  1027 hPa West 2.3 mph /  3.7 km/h 2.3 mph /  3.7 km/h 55 % 0.00 in /  0 mm
14:23 56.9 °F /  13.8 °C 40.9 °F /  4.9 °C 30.33 in /  1027 hPa NW 1.2 mph /  1.9 km/h 1.2 mph /  1.9 km/h 55 % 0.00 in /  0 mm
14:28 57.0 °F /  13.9 °C 41.9 °F /  5.5 °C 30.33 in /  1027 hPa SSW 2.3 mph /  3.7 km/h 2.3 mph /  3.7 km/h 57 % 0.00 in /  0 mm
14:33 57.3 °F /  14.1 °C 40.8 °F /  4.9 °C 30.33 in /  1027 hPa ESE 1.2 mph /  1.9 km/h 1.2 mph /  1.9 km/h 54 % 0.00 in /  0 mm
14:38 57.4 °F /  14.1 °C 42.3 °F /  5.7 °C 30.33 in /  1027 hPa SSE 3.5 mph /  5.6 km/h 3.5 mph /  5.6 km/h 57 % 0.00 in /  0 mm
14:43 57.4 °F /  14.1 °C 40.9 °F /  4.9 °C 30.33 in /  1027 hPa Calm     54 % 0.00 in /  0 mm
14:48 57.5 °F /  14.2 °C 41.4 °F /  5.2 °C 30.33 in /  1027 hPa South 1.2 mph /  1.9 km/h   55 % 0.00 in /  0 mm
14:53 57.6 °F /  14.2 °C 41.1 °F /  5.1 °C 30.33 in /  1027 hPa Calm     54 % 0.00 in /  0 mm
14:58 57.1 °F /  13.9 °C 40.6 °F /  4.8 °C 30.33 in /  1027 hPa NW 2.3 mph /  3.7 km/h   54 % 0.00 in /  0 mm
15:03 56.8 °F /  13.8 °C 41.3 °F /  5.2 °C 30.33 in /  1027 hPa Calm     56 % 0.00 in /  0 mm
15:08 57.1 °F /  13.9 °C 41.5 °F /  5.3 °C 30.32 in /  1026.6 hPa NW 1.2 mph /  1.9 km/h   56 % 0.00 in /  0 mm
15:13 57.1 °F /  13.9 °C 41.5 °F /  5.3 °C 30.33 in /  1027 hPa SSE 1.2 mph /  1.9 km/h 1.2 mph /  1.9 km/h 56 % 0.00 in /  0 mm
15:18 57.1 °F /  13.9 °C 40.6 °F /  4.8 °C 30.33 in /  1027 hPa Calm     54 % 0.00 in /  0 mm
15:23 57.0 °F /  13.9 °C 39.0 °F /  3.9 °C 30.33 in /  1027 hPa WNW 1.2 mph /  1.9 km/h 1.2 mph /  1.9 km/h 51 % 0.00 in /  0 mm
15:28 56.9 °F /  13.8 °C 38.4 °F /  3.6 °C 30.32 in /  1026.6 hPa NW 1.2 mph /  1.9 km/h 1.2 mph /  1.9 km/h 50 % 0.00 in /  0 mm
15:33 56.8 °F /  13.8 °C 38.9 °F /  3.8 °C 30.33 in /  1027 hPa NW 2.3 mph /  3.7 km/h 2.3 mph /  3.7 km/h 51 % 0.00 in /  0 mm
15:38 56.7 °F /  13.7 °C 38.8 °F /  3.8 °C 30.33 in /  1027 hPa Calm     51 % 0.00 in /  0 mm
15:43 56.5 °F /  13.6 °C 38.6 °F /  3.7 °C 30.33 in /  1027 hPa NW 1.2 mph /  1.9 km/h   51 % 0.00 in /  0 mm
15:48 56.4 °F /  13.6 °C 39.5 °F /  4.2 °C 30.33 in /  1027 hPa Calm     53 % 0.00 in /  0 mm
15:53 56.3 °F /  13.5 °C 38.4 °F /  3.6 °C 30.33 in /  1027 hPa Calm     51 % 0.00 in /  0 mm
15:58 56.2 °F /  13.4 °C 38.3 °F /  3.5 °C 30.33 in /  1027 hPa WNW 1.2 mph /  1.9 km/h 1.2 mph /  1.9 km/h 51 % 0.00 in /  0 mm
16:03 56.2 °F /  13.4 °C 38.3 °F /  3.5 °C 30.32 in /  1026.6 hPa NNW 1.2 mph /  1.9 km/h   51 % 0.00 in /  0 mm
16:08 56.0 °F /  13.3 °C 38.6 °F /  3.7 °C 30.32 in /  1026.6 hPa NW 1.0 mph /  1.6 km/h 1.0 mph /  1.6 km/h 52 % 0.00 in /  0 mm
16:13 55.8 °F /  13.2 °C 37.9 °F /  3.3 °C 30.32 in /  1026.6 hPa WNW 1.2 mph /  1.9 km/h   51 % 0.00 in /  0 mm
16:18 55.7 °F /  13.2 °C 37.8 °F /  3.2 °C 30.32 in /  1026.6 hPa Calm     51 % 0.00 in /  0 mm
16:23 55.6 °F /  13.1 °C 38.2 °F /  3.4 °C 30.32 in /  1026.6 hPa Calm     52 % 0.00 in /  0 mm
16:28 55.6 °F /  13.1 °C 38.2 °F /  3.4 °C 30.32 in /  1026.6 hPa NW 1.2 mph /  1.9 km/h 1.2 mph /  1.9 km/h 52 % 0.00 in /  0 mm
16:33 55.5 °F /  13.1 °C 39.1 °F /  3.9 °C 30.33 in /  1027 hPa NW 1.2 mph /  1.9 km/h   54 % 0.00 in /  0 mm
16:38 55.3 °F /  12.9 °C 38.9 °F /  3.8 °C 30.33 in /  1027 hPa Calm     54 % 0.00 in /  0 mm
16:43 55.1 °F /  12.8 °C 39.2 °F /  4 °C 30.33 in /  1027 hPa NW 1.2 mph /  1.9 km/h 1.2 mph /  1.9 km/h 55 % 0.00 in /  0 mm
16:48 55.0 °F /  12.8 °C 39.6 °F /  4.2 °C 30.33 in /  1027 hPa NW 2.3 mph /  3.7 km/h 2.3 mph /  3.7 km/h 56 % 0.00 in /  0 mm
16:53 54.7 °F /  12.6 °C 39.3 °F /  4.1 °C 30.33 in /  1027 hPa SW 1.2 mph /  1.9 km/h 1.2 mph /  1.9 km/h 56 % 0.00 in /  0 mm
16:58 54.1 °F /  12.3 °C 39.6 °F /  4.2 °C 30.33 in /  1027 hPa Calm     58 % 0.00 in /  0 mm
17:03 53.6 °F /  12 °C 39.6 °F /  4.2 °C 30.33 in /  1027 hPa Calm     59 % 0.00 in /  0 mm
17:08 53.1 °F /  11.7 °C 40.0 °F /  4.4 °C 30.33 in /  1027 hPa Calm     61 % 0.00 in /  0 mm
17:13 52.5 °F /  11.4 °C 39.8 °F /  4.3 °C 30.33 in /  1027 hPa Calm     62 % 0.00 in /  0 mm
17:18 52.1 °F /  11.2 °C 39.9 °F /  4.4 °C 30.33 in /  1027 hPa Calm     63 % 0.00 in /  0 mm
17:23 51.6 °F /  10.9 °C 39.8 °F /  4.3 °C 30.32 in /  1026.6 hPa Calm     64 % 0.00 in /  0 mm
17:28 51.1 °F /  10.6 °C 39.7 °F /  4.3 °C 30.33 in /  1027 hPa Calm     65 % 0.00 in /  0 mm
17:33 50.6 °F /  10.3 °C 39.7 °F /  4.3 °C 30.33 in /  1027 hPa Calm     66 % 0.00 in /  0 mm
17:38 50.1 °F /  10.1 °C 39.6 °F /  4.2 °C 30.33 in /  1027 hPa Calm     67 % 0.00 in /  0 mm
17:43 49.7 °F /  9.8 °C 39.6 °F /  4.2 °C 30.33 in /  1027 hPa Calm     68 % 0.00 in /  0 mm
17:48 49.3 °F /  9.6 °C 39.6 °F /  4.2 °C 30.33 in /  1027 hPa Calm     69 % 0.00 in /  0 mm
18:03 48.8 °F /  9.3 °C 39.4 °F /  4.1 °C 30.34 in /  1027.3 hPa Calm     70 % 0.00 in /  0 mm
18:08 48.7 °F /  9.3 °C 39.4 °F /  4.1 °C 30.34 in /  1027.3 hPa Calm     70 % 0.00 in /  0 mm
18:13 48.5 °F /  9.2 °C 39.5 °F /  4.2 °C 30.34 in /  1027.3 hPa Calm     71 % 0.00 in /  0 mm
18:18 48.5 °F /  9.2 °C 39.5 °F /  4.2 °C 30.35 in /  1027.7 hPa Calm     71 % 0.00 in /  0 mm
18:23 48.5 °F /  9.2 °C 39.5 °F /  4.2 °C 30.35 in /  1027.7 hPa Calm     71 % 0.00 in /  0 mm
18:24 48.4 °F /  9.1 °C 39.4 °F /  4.1 °C 30.35 in /  1027.7 hPa Calm     71 % 0.00 in /  0 mm
18:29 48.3 °F /  9.1 °C 39.7 °F /  4.3 °C 30.35 in /  1027.7 hPa Calm     72 % 0.00 in /  0 mm
18:34 47.9 °F /  8.8 °C 39.7 °F /  4.3 °C 30.36 in /  1028 hPa Calm     73 % 0.00 in /  0 mm
18:39 47.7 °F /  8.7 °C 39.8 °F /  4.3 °C 30.36 in /  1028 hPa Calm     74 % 0.00 in /  0 mm
18:44 47.4 °F /  8.6 °C 39.5 °F /  4.2 °C 30.36 in /  1028 hPa Calm     74 % 0.00 in /  0 mm
18:49 47.0 °F /  8.3 °C 39.5 °F /  4.2 °C 30.36 in /  1028 hPa Calm     75 % 0.00 in /  0 mm
18:54 46.5 °F /  8.1 °C 39.7 °F /  4.3 °C 30.36 in /  1028 hPa Calm     77 % 0.00 in /  0 mm
18:59 46.3 °F /  7.9 °C 39.5 °F /  4.2 °C 30.36 in /  1028 hPa Calm     77 % 0.00 in /  0 mm
19:04 45.9 °F /  7.7 °C 39.4 °F /  4.1 °C 30.36 in /  1028 hPa Calm     78 % 0.00 in /  0 mm
19:09 45.6 °F /  7.6 °C 39.5 °F /  4.2 °C 30.36 in /  1028 hPa Calm     79 % 0.00 in /  0 mm
19:14 45.3 °F /  7.4 °C 39.5 °F /  4.2 °C 30.36 in /  1028 hPa Calm     80 % 0.00 in /  0 mm
19:19 45.2 °F /  7.3 °C 39.7 °F /  4.3 °C 30.36 in /  1028 hPa Calm     81 % 0.00 in /  0 mm
19:24 45.6 °F /  7.6 °C 40.1 °F /  4.5 °C 30.36 in /  1028 hPa Calm     81 % 0.00 in /  0 mm
19:29 45.6 °F /  7.6 °C 39.8 °F /  4.3 °C 30.36 in /  1028 hPa Calm     80 % 0.00 in /  0 mm
19:34 45.5 °F /  7.5 °C 39.7 °F /  4.3 °C 30.36 in /  1028 hPa Calm     80 % 0.00 in /  0 mm
19:39 45.2 °F /  7.3 °C 39.4 °F /  4.1 °C 30.36 in /  1028 hPa Calm     80 % 0.00 in /  0 mm
19:44 44.9 °F /  7.2 °C 39.4 °F /  4.1 °C 30.36 in /  1028 hPa Calm     81 % 0.00 in /  0 mm
19:49 44.6 °F /  7 °C 39.4 °F /  4.1 °C 30.36 in /  1028 hPa Calm     82 % 0.00 in /  0 mm
19:54 44.5 °F /  6.9 °C 39.3 °F /  4.1 °C 30.36 in /  1028 hPa Calm     82 % 0.00 in /  0 mm
19:59 44.3 °F /  6.8 °C 39.5 °F /  4.2 °C 30.36 in /  1028 hPa Calm     83 % 0.00 in /  0 mm
20:04 44.1 °F /  6.7 °C 39.3 °F /  4.1 °C 30.36 in /  1028 hPa Calm     83 % 0.00 in /  0 mm
20:09 43.6 °F /  6.4 °C 38.8 °F /  3.8 °C 30.37 in /  1028.3 hPa Calm     83 % 0.00 in /  0 mm
20:14 43.3 °F /  6.3 °C 38.8 °F /  3.8 °C 30.37 in /  1028.3 hPa Calm     84 % 0.00 in /  0 mm
20:19 43.0 °F /  6.1 °C 38.5 °F /  3.6 °C 30.37 in /  1028.3 hPa Calm     84 % 0.00 in /  0 mm
20:24 42.5 °F /  5.8 °C 38.0 °F /  3.3 °C 30.37 in /  1028.3 hPa Calm     84 % 0.00 in /  0 mm
20:29 42.2 °F /  5.7 °C 38.0 °F /  3.3 °C 30.37 in /  1028.3 hPa Calm     85 % 0.00 in /  0 mm
20:34 42.0 °F /  5.6 °C 38.1 °F /  3.4 °C 30.37 in /  1028.3 hPa Calm     86 % 0.00 in /  0 mm
20:39 41.8 °F /  5.4 °C 37.9 °F /  3.3 °C 30.37 in /  1028.3 hPa Calm     86 % 0.00 in /  0 mm
20:44 41.6 °F /  5.3 °C 38.0 °F /  3.3 °C 30.37 in /  1028.3 hPa Calm     87 % 0.00 in /  0 mm
20:49 41.5 °F /  5.3 °C 37.9 °F /  3.3 °C 30.38 in /  1028.7 hPa Calm     87 % 0.00 in /  0 mm
20:54 41.3 °F /  5.2 °C 37.7 °F /  3.2 °C 30.38 in /  1028.7 hPa Calm     87 % 0.00 in /  0 mm
20:59 41.2 °F /  5.1 °C 37.6 °F /  3.1 °C 30.38 in /  1028.7 hPa Calm     87 % 0.00 in /  0 mm
21:04 41.3 °F /  5.2 °C 38.0 °F /  3.3 °C 30.38 in /  1028.7 hPa Calm     88 % 0.00 in /  0 mm
21:10 41.2 °F /  5.1 °C 37.9 °F /  3.3 °C 30.38 in /  1028.7 hPa Calm     88 % 0.00 in /  0 mm
21:15 41.0 °F /  5 °C 37.7 °F /  3.2 °C 30.38 in /  1028.7 hPa Calm     88 % 0.00 in /  0 mm
21:20 41.1 °F /  5.1 °C 38.1 °F /  3.4 °C 30.38 in /  1028.7 hPa Calm     89 % 0.00 in /  0 mm
21:25 41.3 °F /  5.2 °C 38.3 °F /  3.5 °C 30.38 in /  1028.7 hPa Calm     89 % 0.00 in /  0 mm
21:30 41.5 °F /  5.3 °C 38.5 °F /  3.6 °C 30.38 in /  1028.7 hPa Calm     89 % 0.00 in /  0 mm
21:35 41.4 °F /  5.2 °C 38.1 °F /  3.4 °C 30.38 in /  1028.7 hPa West 1.2 mph /  1.9 km/h   88 % 0.00 in /  0 mm
21:40 40.9 °F /  4.9 °C 37.6 °F /  3.1 °C 30.38 in /  1028.7 hPa Calm     88 % 0.00 in /  0 mm
21:45 40.5 °F /  4.7 °C 37.5 °F /  3.1 °C 30.38 in /  1028.7 hPa Calm     89 % 0.00 in /  0 mm
21:50 40.2 °F /  4.6 °C 37.2 °F /  2.9 °C 30.38 in /  1028.7 hPa Calm     89 % 0.00 in /  0 mm
21:55 40.1 °F /  4.5 °C 37.4 °F /  3 °C 30.38 in /  1028.7 hPa Calm     90 % 0.00 in /  0 mm
22:00 40.0 °F /  4.4 °C 37.3 °F /  2.9 °C 30.38 in /  1028.7 hPa Calm     90 % 0.00 in /  0 mm
22:05 39.9 °F /  4.4 °C 37.5 °F /  3.1 °C 30.38 in /  1028.7 hPa Calm     91 % 0.00 in /  0 mm
22:10 39.8 °F /  4.3 °C 37.4 °F /  3 °C 30.38 in /  1028.7 hPa Calm     91 % 0.00 in /  0 mm
22:15 39.7 °F /  4.3 °C 37.3 °F /  2.9 °C 30.38 in /  1028.7 hPa Calm     91 % 0.00 in /  0 mm
22:20 39.6 °F /  4.2 °C 37.2 °F /  2.9 °C 30.38 in /  1028.7 hPa Calm     91 % 0.00 in /  0 mm
22:25 39.5 °F /  4.2 °C 37.1 °F /  2.8 °C 30.38 in /  1028.7 hPa Calm     91 % 0.00 in /  0 mm
22:30 39.4 °F /  4.1 °C 37.0 °F /  2.8 °C 30.38 in /  1028.7 hPa Calm     91 % 0.00 in /  0 mm
22:35 39.1 °F /  3.9 °C 36.7 °F /  2.6 °C 30.39 in /  1029 hPa Calm     91 % 0.00 in /  0 mm
22:40 39.1 °F /  3.9 °C 36.7 °F /  2.6 °C 30.39 in /  1029 hPa Calm     91 % 0.00 in /  0 mm
22:45 39.3 °F /  4.1 °C 37.2 °F /  2.9 °C 30.39 in /  1029 hPa Calm     92 % 0.00 in /  0 mm
22:50 39.6 °F /  4.2 °C 37.2 °F /  2.9 °C 30.39 in /  1029 hPa Calm     91 % 0.00 in /  0 mm
22:55 39.7 °F /  4.3 °C 37.0 °F /  2.8 °C 30.39 in /  1029 hPa Calm     90 % 0.00 in /  0 mm
23:00 39.7 °F /  4.3 °C 37.0 °F /  2.8 °C 30.39 in /  1029 hPa Calm     90 % 0.00 in /  0 mm
23:05 39.7 °F /  4.3 °C 37.0 °F /  2.8 °C 30.39 in /  1029 hPa Calm     90 % 0.00 in /  0 mm
23:10 39.7 °F /  4.3 °C 37.0 °F /  2.8 °C 30.39 in /  1029 hPa Calm     90 % 0.00 in /  0 mm
23:15 39.7 °F /  4.3 °C 37.0 °F /  2.8 °C 30.39 in /  1029 hPa Calm     90 % 0.00 in /  0 mm
23:20 39.7 °F /  4.3 °C 37.0 °F /  2.8 °C 30.39 in /  1029 hPa North 1.2 mph /  1.9 km/h 1.2 mph /  1.9 km/h 90 % 0.00 in /  0 mm
23:25 39.8 °F /  4.3 °C 37.1 °F /  2.8 °C 30.39 in /  1029 hPa North 1.2 mph /  1.9 km/h 1.2 mph /  1.9 km/h 90 % 0.00 in /  0 mm
23:30 39.8 °F /  4.3 °C 36.8 °F /  2.7 °C 30.39 in /  1029 hPa Calm     89 % 0.00 in /  0 mm
23:35 39.8 °F /  4.3 °C 36.8 °F /  2.7 °C 30.38 in /  1028.7 hPa North 1.2 mph /  1.9 km/h   89 % 0.00 in /  0 mm
23:40 39.9 °F /  4.4 °C 36.9 °F /  2.7 °C 30.39 in /  1029 hPa Calm     89 % 0.00 in /  0 mm
23:45 39.8 °F /  4.3 °C 37.1 °F /  2.8 °C 30.40 in /  1029.3 hPa Calm     90 % 0.00 in /  0 mm
23:50 39.6 °F /  4.2 °C 36.6 °F /  2.6 °C 30.39 in /  1029 hPa Calm     89 % 0.00 in /  0 mm
23:55 39.3 °F /  4.1 °C 36.6 °F /  2.6 °C 30.39 in /  1029 hPa Calm     90 % 0.00 in /  0 mm
Park Place, Exeter, Tulare County, California, USA
Compliments of Weather Underground - 2.75 mb